Time;durP1;ratioP1;P1;durP2;ratioP2;P2;SDS_P1;SDS_P2;PMS_P1;PMS_P2;Temp;Humidity;BMP_temperature;BMP_pressure;BME280_temperature;BME280_humidity;BME280_pressure;Samples;Min_cycle;Max_cycle;Signal;HPM_P1;HPM_P2
2022/08/13 00:03:30;;;;;;;2.67;1.60;;;;;;;17.71;56.18;100249.81;10420632;28;20055;-68
2022/08/13 00:08:52;;;;;;;1.83;1.42;;;;;;;17.78;56.17;100248.50;10406099;28;20510;-68
2022/08/13 00:13:53;;;;;;;2.63;1.52;;;;;;;17.53;57.14;100250.84;10419574;28;20044;-68
2022/08/13 00:18:55;;;;;;;2.95;1.80;;;;;;;17.40;57.73;100258.66;10419658;28;20037;-68
2022/08/13 00:23:58;;;;;;;2.63;2.03;;;;;;;17.48;57.55;100252.91;10419290;28;20048;-68
2022/08/13 00:29:02;;;;;;;2.08;1.88;;;;;;;17.54;57.35;100248.09;10419213;28;20041;-68
2022/08/13 00:34:04;;;;;;;2.95;2.15;;;;;;;17.81;56.64;100242.19;10419009;28;20052;-68
2022/08/13 00:39:08;;;;;;;1.63;1.40;;;;;;;17.58;57.02;100243.47;10418884;28;20569;-68
2022/08/13 00:44:13;;;;;;;2.58;1.63;;;;;;;17.49;57.46;100231.56;10418835;28;20056;-68
2022/08/13 00:49:15;;;;;;;3.50;1.73;;;;;;;17.41;57.38;100223.19;10419348;28;20425;-67
2022/08/13 00:54:18;;;;;;;6.70;2.00;;;;;;;17.26;57.76;100216.91;10418994;28;20508;-68
2022/08/13 00:59:20;;;;;;;7.13;1.50;;;;;;;16.87;58.57;100214.69;10418145;28;20102;-68
2022/08/13 01:04:25;;;;;;;9.30;1.65;;;;;;;16.82;58.94;100204.34;10418425;28;20128;-68
2022/08/13 01:09:32;;;;;;;2.67;1.70;;;;;;;16.97;58.78;100194.66;10418012;28;20045;-68
2022/08/13 01:14:57;;;;;;;2.83;1.65;;;;;;;17.01;58.59;100193.53;10418011;28;20038;-68
2022/08/13 01:20:03;;;;;;;4.07;1.50;;;;;;;16.98;58.26;100192.84;10466691;23;20493;-70
2022/08/13 01:25:08;;;;;;;3.22;1.92;;;;;;;16.51;60.01;100191.84;10460304;28;20048;-70
2022/08/13 01:30:14;;;;;;;4.38;2.15;;;;;;;16.72;59.90;100189.84;10501952;28;20427;-70
2022/08/13 01:35:19;;;;;;;4.00;1.92;;;;;;;16.87;59.24;100186.34;10501820;28;20488;-70
2022/08/13 01:40:22;;;;;;;2.05;1.75;;;;;;;16.57;60.19;100193.31;10501568;28;20072;-70
2022/08/13 01:45:26;;;;;;;3.38;1.77;;;;;;;16.29;61.12;100196.53;10503043;28;20044;-69
2022/08/13 01:50:31;;;;;;;1.98;1.77;;;;;;;16.35;61.32;100194.44;10501314;28;20473;-69
2022/08/13 01:55:46;;;;;;;2.55;1.60;;;;;;;16.50;60.84;100198.06;10500802;28;20044;-70
2022/08/13 02:01:08;;;;;;;2.47;1.88;;;;;;;16.54;60.96;100188.16;10500861;28;20097;-69
2022/08/13 02:06:11;;;;;;;1.95;1.58;;;;;;;16.38;61.51;100196.09;10502446;28;20068;-69
2022/08/13 02:11:28;;;;;;;4.63;1.77;;;;;;;16.22;61.79;100201.34;10502415;28;20055;-71
2022/08/13 02:16:33;;;;;;;4.22;2.05;;;;;;;16.24;62.23;100209.19;10499277;28;20098;-70
2022/08/13 02:21:38;;;;;;;2.35;1.60;;;;;;;16.16;62.49;100209.63;10499082;28;20071;-71
2022/08/13 02:26:46;;;;;;;2.45;2.15;;;;;;;16.01;62.93;100211.25;10482683;28;20117;-69
2022/08/13 02:31:56;;;;;;;4.20;2.15;;;;;;;15.87;63.62;100213.75;10483613;28;20045;-69
2022/08/13 02:37:21;;;;;;;2.72;1.65;;;;;;;15.87;63.56;100209.31;10499975;28;20041;-69
2022/08/13 02:42:43;;;;;;;2.95;1.80;;;;;;;15.86;63.84;100207.59;10499578;28;20044;-69
2022/08/13 02:47:45;;;;;;;4.75;2.03;;;;;;;16.14;62.98;100196.41;10482353;28;20490;-70
2022/08/13 02:52:51;;;;;;;2.67;2.15;;;;;;;16.00;63.12;100204.25;10481985;28;20535;-69
2022/08/13 02:58:00;;;;;;;4.00;2.17;;;;;;;16.10;63.08;100204.63;10499332;28;20047;-70
2022/08/13 03:03:03;;;;;;;4.75;2.70;;;;;;;16.25;61.90;100202.97;10481776;28;20052;-70
2022/08/13 03:08:13;;;;;;;7.95;2.85;;;;;;;15.90;63.04;100192.41;10500351;28;20048;-70
2022/08/13 03:13:37;;;;;;;3.90;2.63;;;;;;;15.54;64.46;100192.44;10500145;28;20488;-69
2022/08/13 03:18:46;;;;;;;3.28;2.90;;;;;;;15.61;64.70;100192.03;10499212;28;20114;-69
2022/08/13 03:23:54;;;;;;;4.05;3.20;;;;;;;15.84;63.85;100190.91;10498669;28;20560;-69
2022/08/13 03:28:56;;;;;;;5.25;3.70;;;;;;;15.51;65.06;100185.50;10480202;28;20068;-69
2022/08/13 03:33:58;;;;;;;4.00;3.20;;;;;;;15.48;64.92;100182.13;10500696;28;20052;-73
2022/08/13 03:39:05;;;;;;;4.67;3.60;;;;;;;15.55;64.96;100181.75;10488605;28;20041;-71
2022/08/13 03:44:06;;;;;;;4.95;3.63;;;;;;;15.58;65.08;100193.97;10488744;28;20155;-71
2022/08/13 03:49:11;;;;;;;4.47;3.45;;;;;;;15.82;64.64;100189.28;10489423;28;20041;-72
2022/08/13 03:54:13;;;;;;;4.82;3.65;;;;;;;15.73;64.75;100197.69;10507178;28;20052;-73
2022/08/13 03:59:18;;;;;;;4.18;3.30;;;;;;;15.60;65.21;100189.47;10505617;28;20041;-73
2022/08/13 04:04:20;;;;;;;10.63;3.55;;;;;;;15.99;63.84;100181.31;10504483;28;20059;-71
2022/08/13 04:09:24;;;;;;;4.20;2.83;;;;;;;15.58;65.19;100181.59;10505397;28;20033;-71
2022/08/13 04:14:28;;;;;;;6.80;2.75;;;;;;;15.53;65.44;100177.44;10504980;28;20048;-72
2022/08/13 04:19:41;;;;;;;6.18;3.00;;;;;;;15.54;65.56;100179.19;10504638;28;20044;-72
2022/08/13 04:24:45;;;;;;;4.88;3.33;;;;;;;15.73;64.96;100182.66;10504922;28;20044;-73
2022/08/13 04:29:48;;;;;;;3.33;2.60;;;;;;;15.87;64.67;100184.59;10488103;28;20041;-71
2022/08/13 04:34:51;;;;;;;3.10;2.80;;;;;;;16.17;63.77;100171.56;10504550;28;20048;-71
2022/08/13 04:40:00;;;;;;;4.75;3.08;;;;;;;16.02;63.84;100186.44;10505149;28;20123;-71
2022/08/13 04:45:09;;;;;;;3.20;2.78;;;;;;;16.07;63.35;100183.56;10488003;28;20041;-72
2022/08/13 04:50:14;;;;;;;3.15;2.33;;;;;;;16.26;62.82;100196.72;10505186;28;20123;-71
2022/08/13 04:55:19;;;;;;;4.78;2.30;;;;;;;16.18;63.33;100205.09;10504742;28;20048;-71
2022/08/13 05:00:24;;;;;;;2.83;2.63;;;;;;;16.35;62.71;100205.06;10504974;28;20039;-71
2022/08/13 05:05:25;;;;;;;3.25;2.90;;;;;;;16.49;62.55;100195.50;10504098;28;20044;-72
2022/08/13 05:10:30;;;;;;;4.40;2.90;;;;;;;16.48;62.48;100191.16;10503476;28;20040;-72
2022/08/13 05:15:39;;;;;;;3.55;2.67;;;;;;;16.63;62.58;100187.66;10485177;28;20144;-73
2022/08/13 05:20:50;;;;;;;26.25;4.28;;;;;;;16.67;62.25;100188.34;10503685;28;20040;-72
2022/08/13 05:25:54;;;;;;;3.73;2.10;;;;;;;16.85;61.75;100192.69;10501912;28;20045;-72
2022/08/13 05:31:19;;;;;;;5.22;3.35;;;;;;;17.07;61.14;100187.03;10503224;28;20055;-71
2022/08/13 05:36:28;;;;;;;5.22;2.95;;;;;;;17.09;61.14;100190.47;10501426;28;20394;-71
2022/08/13 05:41:50;;;;;;;5.88;2.92;;;;;;;17.41;60.41;100178.00;10501922;28;20041;-71
2022/08/13 05:47:10;;;;;;;6.93;3.35;;;;;;;17.36;60.54;100175.63;10486206;28;20059;-72
2022/08/13 05:52:16;;;;;;;4.50;3.20;;;;;;;17.43;60.25;100167.28;10502341;28;20124;-71
2022/08/13 05:57:39;;;;;;;5.30;3.47;;;;;;;17.55;60.01;100161.25;10502200;28;20045;-72
2022/08/13 06:08:07;;;;;;;4.03;3.22;;;;;;;18.19;58.13;100160.06;10502382;28;20029;-71
2022/08/13 06:13:30;;;;;;;5.03;3.42;;;;;;;17.93;58.96;100167.00;10502728;28;20071;-71
2022/08/13 06:18:52;;;;;;;3.38;3.08;;;;;;;18.03;58.84;100161.97;10501850;28;20128;-73
2022/08/13 06:24:09;;;;;;;4.05;3.65;;;;;;;18.29;58.14;100153.25;10500915;28;20040;-72
2022/08/13 06:29:15;;;;;;;5.20;3.15;;;;;;;18.44;57.88;100154.09;10500651;28;20044;-71
2022/08/13 06:34:18;;;;;;;3.63;3.33;;;;;;;18.01;58.87;100170.03;10499579;28;20048;-71
2022/08/13 06:39:39;;;;;;;4.03;2.80;;;;;;;17.99;58.75;100171.94;10500939;28;20397;-71
2022/08/13 06:44:44;;;;;;;3.17;2.63;;;;;;;18.09;58.30;100161.59;10499588;28;20128;-72
2022/08/13 06:49:48;;;;;;;7.47;2.75;;;;;;;17.98;58.76;100161.41;10482405;28;20036;-73
2022/08/13 06:55:03;;;;;;;2.60;2.40;;;;;;;18.06;58.98;100164.44;10501694;28;20044;-73
2022/08/13 07:00:26;;;;;;;3.08;2.47;;;;;;;18.13;58.90;100168.44;10499728;28;20048;-71
2022/08/13 07:05:40;;;;;;;4.35;2.45;;;;;;;18.14;58.76;100167.47;10501021;28;20048;-70
2022/08/13 07:10:46;;;;;;;2.35;1.95;;;;;;;18.51;57.85;100163.41;10507003;28;20405;-70
2022/08/13 07:15:51;;;;;;;3.40;2.28;;;;;;;18.56;57.66;100160.47;10508944;28;20479;-70
2022/08/13 07:20:53;;;;;;;9.45;2.90;;;;;;;18.46;58.27;100162.84;10465927;28;20081;-68
2022/08/13 07:25:57;;;;;;;3.67;2.10;;;;;;;18.51;58.53;100178.53;10468580;28;20049;-69
2022/08/13 07:31:04;;;;;;;3.97;2.70;;;;;;;18.77;57.44;100179.56;10468819;28;20033;-69
2022/08/13 07:36:14;;;;;;;4.95;2.95;;;;;;;18.77;58.50;100192.88;10467973;28;20045;-68
2022/08/13 07:41:19;;;;;;;3.83;3.13;;;;;;;18.62;58.33;100189.34;10467870;28;20079;-70
2022/08/13 07:46:23;;;;;;;5.88;2.88;;;;;;;18.55;60.34;100175.59;10468527;28;20041;-69
2022/08/13 07:51:30;;;;;;;3.17;2.28;;;;;;;18.41;60.29;100176.41;10466205;28;20129;-69
2022/08/13 07:56:39;;;;;;;3.88;2.47;;;;;;;18.62;59.24;100181.38;10476118;28;20040;-69
2022/08/13 08:01:53;;;;;;;4.57;2.63;;;;;;;18.69;58.56;100171.22;10474046;28;20063;-70
2022/08/13 08:07:15;;;;;;;3.83;2.50;;;;;;;18.87;57.84;100170.06;10423269;28;20418;-68
2022/08/13 08:12:35;;;;;;;2.85;2.50;;;;;;;19.01;57.24;100169.19;10450073;28;20048;-69
2022/08/13 08:17:54;;;;;;;2.25;2.05;;;;;;;19.19;56.48;100177.78;10521861;28;20048;-69
2022/08/13 08:23:16;;;;;;;2.67;1.70;;;;;;;19.42;55.72;100175.31;10546158;28;20051;-69
2022/08/13 08:28:39;;;;;;;3.90;2.20;;;;;;;19.67;54.84;100173.72;10539481;28;20041;-70
2022/08/13 08:33:44;;;;;;;4.00;2.20;;;;;;;19.70;55.06;100177.97;10503968;28;20123;-68
2022/08/13 08:44:23;;;;;;;5.57;2.10;;;;;;;20.36;53.98;100167.16;10505289;28;20516;-68
2022/08/13 08:49:26;;;;;;;5.15;2.88;;;;;;;20.04;55.17;100176.53;10505959;28;20048;-69
2022/08/13 08:54:46;;;;;;;6.80;2.97;;;;;;;19.94;56.45;100178.13;10503665;28;20037;-70
2022/08/13 08:59:48;;;;;;;3.17;2.88;;;;;;;19.72;56.84;100178.72;10503481;28;20458;-69
2022/08/13 09:04:54;;;;;;;2.70;2.50;;;;;;;19.78;57.12;100170.31;10485211;28;20142;-70
2022/08/13 09:10:12;;;;;;;3.55;2.65;;;;;;;19.78;57.78;100170.31;10502534;28;20068;-70
2022/08/13 09:15:21;;;;;;;3.97;3.40;;;;;;;20.02;57.84;100173.97;10503295;28;20063;-70
2022/08/13 09:20:28;;;;;;;5.93;4.55;;;;;;;20.32;58.20;100176.34;10502571;28;20069;-70
2022/08/13 09:25:31;;;;;;;4.95;4.55;;;;;;;20.42;58.65;100173.88;10483642;28;20086;-69
2022/08/13 09:30:46;;;;;;;5.72;4.75;;;;;;;20.75;58.26;100169.78;10501063;28;20044;-69
2022/08/13 09:35:52;;;;;;;5.40;4.90;;;;;;;20.80;58.22;100167.63;10484719;28;20048;-69
2022/08/13 09:41:01;;;;;;;5.57;5.00;;;;;;;21.11;57.13;100167.09;10501427;28;20046;-69
2022/08/13 09:46:21;;;;;;;5.18;4.75;;;;;;;21.35;57.25;100166.31;10502412;28;20044;-68
2022/08/13 09:51:35;;;;;;;6.63;5.03;;;;;;;21.66;56.40;100159.50;10500505;28;20529;-69
2022/08/13 09:56:58;;;;;;;5.07;4.57;;;;;;;22.41;55.43;100156.41;10482882;28;20417;-70
2022/08/13 10:02:05;;;;;;;6.28;5.68;;;;;;;22.65;55.24;100154.44;10501147;28;20059;-70
2022/08/13 10:07:11;;;;;;;5.82;5.43;;;;;;;22.90;55.15;100147.97;10501261;28;20068;-71
2022/08/13 10:12:21;;;;;;;9.18;6.70;;;;;;;23.62;54.08;100138.47;10500047;28;20036;-70
2022/08/13 10:17:25;;;;;;;7.60;7.00;;;;;;;23.66;54.31;100132.75;10500052;28;20502;-69
2022/08/13 10:22:48;;;;;;;6.60;6.20;;;;;;;23.71;54.82;100126.13;10500605;28;20048;-69
2022/08/13 10:27:55;;;;;;;7.53;7.03;;;;;;;23.98;53.75;100130.97;10500839;28;20037;-69
2022/08/13 10:32:57;;;;;;;5.70;5.20;;;;;;;23.56;55.28;100122.91;10499446;28;20510;-69
2022/08/13 10:38:05;;;;;;;6.22;5.65;;;;;;;23.85;54.91;100112.38;10482518;28;20574;-68
2022/08/13 10:43:07;;;;;;;5.82;5.43;;;;;;;23.89;55.11;100106.63;10500912;28;20498;-68
2022/08/13 10:48:27;;;;;;;5.70;5.05;;;;;;;24.40;54.58;100096.88;10502170;28;20041;-68
2022/08/13 10:58:50;;;;;;;5.65;5.15;;;;;;;24.58;54.27;100079.09;10500747;28;20043;-69
2022/08/13 11:03:56;;;;;;;5.15;4.75;;;;;;;24.12;55.51;100084.97;10500171;28;20041;-69
2022/08/13 11:09:07;;;;;;;5.68;5.22;;;;;;;23.86;56.99;100084.53;10467442;28;20410;-69
2022/08/13 11:14:28;;;;;;;5.53;5.03;;;;;;;23.83;56.92;100076.78;10499975;28;20085;-70
2022/08/13 11:19:44;;;;;;;5.90;5.50;;;;;;;23.84;56.82;100075.78;10482474;28;20051;-69
2022/08/13 11:24:55;;;;;;;5.82;5.43;;;;;;;23.85;57.00;100078.31;10499343;28;20045;-69
2022/08/13 11:29:58;;;;;;;6.00;5.70;;;;;;;23.87;56.89;100075.53;10500344;28;20037;-68
2022/08/13 11:34:59;;;;;;;6.40;5.90;;;;;;;23.88;56.21;100069.16;10480987;28;20054;-69
2022/08/13 11:40:04;;;;;;;6.35;5.85;;;;;;;23.87;56.39;100065.63;10499752;28;20036;-69
2022/08/13 11:45:25;;;;;;;6.60;6.10;;;;;;;23.98;55.95;100067.38;10497438;28;20048;-69
2022/08/13 11:50:49;;;;;;;7.53;7.03;;;;;;;23.99;55.31;100068.22;10495380;28;20040;-69
2022/08/13 11:55:54;;;;;;;7.00;6.40;;;;;;;23.90;54.56;100064.50;10481424;28;20417;-69
2022/08/13 12:00:59;;;;;;;7.72;7.22;;;;;;;23.83;54.62;100066.03;10505647;28;20044;-69
2022/08/13 12:06:10;;;;;;;7.07;6.68;;;;;;;23.62;55.08;100066.88;10505432;28;20045;-69
2022/08/13 12:11:15;;;;;;;7.80;7.20;;;;;;;23.65;55.35;100063.97;10505031;28;20417;-72
2022/08/13 12:16:19;;;;;;;8.10;7.50;;;;;;;23.59;56.54;100061.75;10487523;28;20055;-70
2022/08/13 12:21:21;;;;;;;7.55;6.82;;;;;;;23.57;56.89;100061.03;10506789;28;20037;-69
2022/08/13 12:26:23;;;;;;;7.13;6.50;;;;;;;23.81;56.72;100054.56;10490130;28;20041;-70
2022/08/13 12:31:25;;;;;;;6.80;6.40;;;;;;;23.85;55.80;100050.63;10507577;28;20043;-70
2022/08/13 12:36:33;;;;;;;7.20;6.60;;;;;;;23.68;56.14;100049.41;10506706;28;20048;-68
2022/08/13 12:41:35;;;;;;;7.53;7.03;;;;;;;23.73;56.26;100049.88;10505604;28;20098;-69
2022/08/13 12:46:42;;;;;;;7.47;6.80;;;;;;;23.58;56.83;100048.47;10505065;28;20048;-68
2022/08/13 12:51:48;;;;;;;7.82;7.32;;;;;;;23.58;56.82;100038.59;10506160;28;20090;-68
2022/08/13 12:56:56;;;;;;;7.38;6.88;;;;;;;23.73;56.53;100035.59;10506167;28;20047;-69
2022/08/13 13:01:59;;;;;;;6.72;6.25;;;;;;;23.62;57.21;100031.13;10506061;28;20048;-69
2022/08/13 13:07:02;;;;;;;7.88;7.28;;;;;;;23.59;57.47;100031.38;10487654;28;20571;-68
2022/08/13 13:12:09;;;;;;;7.95;7.28;;;;;;;23.31;58.52;100031.06;10486624;28;20405;-68
2022/08/13 13:17:12;;;;;;;6.93;6.43;;;;;;;23.69;57.84;100023.44;10510562;23;20048;-69
2022/08/13 13:22:37;;;;;;;7.32;6.93;;;;;;;24.11;56.01;100019.66;10460163;28;20040;-68
2022/08/13 13:27:39;;;;;;;6.95;6.55;;;;;;;24.49;54.92;100018.13;10498281;28;20040;-68
2022/08/13 13:32:47;;;;;;;6.28;5.88;;;;;;;25.16;53.07;100014.66;10500444;28;20036;-68
2022/08/13 13:37:49;;;;;;;6.28;5.88;;;;;;;25.27;52.67;100010.09;10499446;28;20048;-68
2022/08/13 13:43:08;;;;;;;6.30;5.90;;;;;;;25.79;51.54;100013.28;10499972;28;20495;-68
2022/08/13 13:48:31;;;;;;;5.70;5.30;;;;;;;26.03;50.13;100004.69;10500450;28;20079;-69
2022/08/13 13:53:33;;;;;;;6.30;5.90;;;;;;;26.01;49.56;100001.28;10499108;28;20075;-68
2022/08/13 13:58:55;;;;;;;5.20;4.85;;;;;;;25.89;49.97;100000.63;10499551;28;20447;-68
2022/08/13 14:04:00;;;;;;;4.53;4.32;;;;;;;26.11;49.54;99999.41;10498631;28;20060;-68
2022/08/13 14:09:04;;;;;;;5.32;4.72;;;;;;;26.10;49.78;99992.31;10498477;28;20048;-68
2022/08/13 14:14:07;;;;;;;5.20;4.80;;;;;;;25.36;51.50;99995.78;10498008;28;20127;-68
2022/08/13 14:19:10;;;;;;;5.15;4.85;;;;;;;25.25;51.82;99993.28;10497833;28;20037;-69
2022/08/13 14:24:33;;;;;;;5.28;4.85;;;;;;;24.98;52.66;99992.13;10498840;28;20048;-69
2022/08/13 14:29:35;;;;;;;4.70;4.30;;;;;;;25.03;52.55;99984.47;10497944;28;20048;-68
2022/08/13 14:34:41;;;;;;;4.50;4.20;;;;;;;25.07;51.67;99980.53;10498426;28;20047;-68
2022/08/13 14:39:55;;;;;;;5.03;4.72;;;;;;;25.06;51.71;99988.75;10497500;28;20032;-68
2022/08/13 14:50:21;;;;;;;5.10;4.70;;;;;;;25.13;51.87;99979.97;10497376;28;20036;-68
2022/08/13 14:55:26;;;;;;;5.60;4.53;;;;;;;25.27;51.44;99977.81;10497075;28;20080;-68
2022/08/13 15:00:30;;;;;;;4.55;4.18;;;;;;;25.60;51.03;99971.94;10496881;28;20405;-68
2022/08/13 15:05:35;;;;;;;4.78;4.32;;;;;;;25.39;50.72;99969.44;10497713;28;20052;-68
2022/08/13 15:10:54;;;;;;;4.72;4.43;;;;;;;25.51;50.88;99966.59;10497767;28;20036;-68
2022/08/13 15:16:07;;;;;;;5.35;4.85;;;;;;;25.73;50.40;99965.41;10497198;28;20090;-69
2022/08/13 15:21:15;;;;;;;4.78;4.47;;;;;;;25.95;49.63;99962.34;10479908;28;20543;-68
2022/08/13 15:26:39;;;;;;;5.72;5.22;;;;;;;25.95;49.76;99954.28;10497083;28;20492;-68
2022/08/13 15:31:46;;;;;;;4.78;4.40;;;;;;;25.69;50.43;99954.06;10504327;28;20109;-68
2022/08/13 15:36:48;;;;;;;5.28;4.60;;;;;;;25.61;50.43;99944.03;10504217;28;20071;-67
2022/08/13 15:42:06;;;;;;;4.68;4.25;;;;;;;25.60;50.91;99947.72;10504773;28;20037;-68
2022/08/13 15:47:12;;;;;;;5.03;4.63;;;;;;;25.81;50.18;99939.47;10504136;28;20048;-70
2022/08/13 15:52:18;;;;;;;5.10;4.80;;;;;;;25.55;51.34;99931.16;10503990;28;20040;-68
2022/08/13 15:57:21;;;;;;;5.03;4.65;;;;;;;25.42;51.56;99936.88;10502640;28;20134;-68
2022/08/13 16:02:24;;;;;;;4.90;4.43;;;;;;;24.96;54.36;99940.31;10502909;28;20430;-69
2022/08/13 16:07:51;;;;;;;6.22;4.43;;;;;;;24.59;56.42;99949.13;10503342;28;20045;-69
2022/08/13 16:13:13;;;;;;;5.95;5.25;;;;;;;24.45;57.16;99946.00;10503971;28;20041;-68
2022/08/13 16:18:31;;;;;;;4.72;4.43;;;;;;;24.57;56.57;99936.78;10503588;28;20417;-68
2022/08/13 16:23:35;;;;;;;4.45;4.15;;;;;;;24.56;56.90;99929.72;10503422;28;20041;-69
2022/08/13 16:28:59;;;;;;;5.20;4.80;;;;;;;24.66;57.74;99935.97;10488368;28;20043;-69
2022/08/13 16:34:02;;;;;;;4.88;4.43;;;;;;;24.47;57.83;99938.63;10484900;28;20405;-69
2022/08/13 16:39:06;;;;;;;4.07;3.78;;;;;;;24.30;58.01;99932.06;10502530;28;20041;-69
2022/08/13 16:44:08;;;;;;;3.70;3.50;;;;;;;24.13;58.46;99929.09;10485239;28;20048;-69
2022/08/13 16:49:30;;;;;;;4.20;3.83;;;;;;;24.25;58.58;99926.28;10485023;28;20040;-70
2022/08/13 16:54:33;;;;;;;4.22;3.92;;;;;;;24.32;58.20;99930.13;10502546;28;20052;-69
2022/08/13 16:59:45;;;;;;;5.03;4.57;;;;;;;24.14;58.73;99927.25;10501790;28;20063;-69
2022/08/13 17:10:19;;;;;;;5.15;4.68;;;;;;;24.00;59.99;99922.28;10483046;28;20045;-70
2022/08/13 17:15:24;;;;;;;4.97;4.68;;;;;;;24.08;59.85;99917.91;10501206;28;20048;-69
2022/08/13 17:20:27;;;;;;;3.90;3.70;;;;;;;24.01;59.59;99919.44;10482828;28;20049;-69
2022/08/13 17:25:30;;;;;;;3.78;3.47;;;;;;;23.91;59.01;99935.53;10482951;28;20115;-69
2022/08/13 17:30:34;;;;;;;3.53;3.22;;;;;;;23.75;59.29;99928.97;10500621;28;20036;-69
2022/08/13 17:35:36;;;;;;;3.17;2.97;;;;;;;23.73;59.55;99918.38;10501508;28;20114;-69
2022/08/13 17:40:43;;;;;;;3.40;3.20;;;;;;;23.77;58.93;99918.94;10501737;28;20060;-70
2022/08/13 17:45:52;;;;;;;4.03;3.72;;;;;;;23.43;60.36;99927.25;10483439;28;20452;-69
2022/08/13 17:51:01;;;;;;;4.53;2.92;;;;;;;23.27;60.85;99933.06;10501077;28;20040;-69
2022/08/13 17:56:13;;;;;;;4.57;3.42;;;;;;;23.47;60.49;99923.31;10480880;28;20045;-68
2022/08/13 18:01:20;;;;;;;3.63;3.33;;;;;;;23.35;60.65;99932.44;10497703;28;20040;-69
2022/08/13 18:06:31;;;;;;;3.30;3.10;;;;;;;23.12;61.12;99935.25;10498650;28;20059;-69
2022/08/13 18:11:35;;;;;;;4.05;3.75;;;;;;;23.17;61.29;99926.81;10499605;28;20082;-68
2022/08/13 18:16:44;;;;;;;3.92;3.72;;;;;;;23.08;61.80;99931.13;10498134;28;20051;-69
2022/08/13 18:22:06;;;;;;;3.70;3.40;;;;;;;22.76;62.64;99930.31;10497566;28;20055;-69
2022/08/13 18:27:08;;;;;;;4.20;3.90;;;;;;;22.69;63.87;99937.16;10497895;28;20044;-70
2022/08/13 18:32:27;;;;;;;4.60;4.30;;;;;;;22.74;64.49;99941.16;10498548;28;20044;-70
2022/08/13 18:37:33;;;;;;;5.70;5.20;;;;;;;22.78;64.21;99947.09;10479883;28;20040;-70
2022/08/13 18:42:44;;;;;;;5.38;4.97;;;;;;;22.32;65.23;99946.44;10498075;28;20041;-70
2022/08/13 18:47:53;;;;;;;4.75;4.45;;;;;;;22.23;65.60;99944.50;10497725;28;20036;-70
2022/08/13 18:52:56;;;;;;;5.60;5.20;;;;;;;22.53;65.75;99948.28;10497754;28;20041;-68
2022/08/13 18:58:19;;;;;;;5.45;4.90;;;;;;;22.29;66.09;99951.16;10497902;28;20040;-69
2022/08/13 19:03:23;;;;;;;5.47;5.07;;;;;;;22.22;66.48;99945.44;10498029;28;20036;-70
2022/08/13 19:08:32;;;;;;;5.93;5.38;;;;;;;22.02;67.29;99947.06;10505838;28;20386;-70
2022/08/13 19:13:34;;;;;;;5.55;5.10;;;;;;;22.02;67.56;99947.06;10487642;28;20167;-71
2022/08/13 19:18:39;;;;;;;6.10;5.63;;;;;;;21.95;67.91;99948.50;10503941;23;20090;-74
2022/08/13 19:23:41;;;;;;;5.25;4.85;;;;;;;21.80;68.35;99944.41;10456961;28;20108;-73
2022/08/13 19:28:43;;;;;;;5.75;5.35;;;;;;;21.65;69.27;99946.47;10518337;28;20044;-73
2022/08/13 19:34:00;;;;;;;5.85;5.45;;;;;;;21.51;69.71;99941.34;10507040;28;20055;-73
2022/08/13 19:39:06;;;;;;;6.32;5.93;;;;;;;21.40;70.37;99943.06;10534506;28;20044;-73
2022/08/13 19:44:31;;;;;;;6.82;6.43;;;;;;;21.29;70.57;99936.78;10509663;28;20049;-73
2022/08/13 19:49:37;;;;;;;6.28;5.78;;;;;;;21.23;71.23;99940.81;10489883;28;20131;-73
2022/08/13 19:54:56;;;;;;;6.47;6.07;;;;;;;21.13;71.47;99948.69;10506686;28;20090;-73
2022/08/13 20:00:11;;;;;;;6.78;6.28;;;;;;;21.02;72.06;99931.75;10508482;28;20036;-73
2022/08/13 20:05:25;;;;;;;6.00;5.70;;;;;;;20.88;72.47;99932.81;10506111;28;20059;-73
2022/08/13 20:10:49;;;;;;;6.75;6.30;;;;;;;20.70;73.25;99935.06;10506843;28;20561;-74
2022/08/13 20:15:50;;;;;;;7.00;6.50;;;;;;;20.66;73.01;99937.13;10504844;28;20417;-75
2022/08/13 20:20:58;;;;;;;7.72;7.13;;;;;;;20.98;73.34;99941.84;10488899;28;20045;-74
2022/08/13 20:26:00;;;;;;;7.53;7.10;;;;;;;20.66;73.97;99931.78;10508300;28;20059;-74
2022/08/13 20:31:18;;;;;;;6.47;5.97;;;;;;;20.51;74.80;99935.59;10507514;28;20522;-73
2022/08/13 20:36:21;;;;;;;7.05;6.60;;;;;;;20.49;74.93;99932.19;10506329;28;20056;-73
2022/08/13 20:41:23;;;;;;;7.22;6.78;;;;;;;20.56;74.63;99938.78;10487252;28;20072;-74
2022/08/13 20:46:45;;;;;;;8.13;7.57;;;;;;;20.93;73.72;99930.66;10506773;28;20040;-73
2022/08/13 20:51:55;;;;;;;7.97;7.47;;;;;;;20.54;75.03;99924.72;10506411;28;20056;-73
2022/08/13 20:56:57;;;;;;;7.32;6.85;;;;;;;20.42;75.21;99921.09;10505391;28;20098;-73
2022/08/13 21:02:00;;;;;;;7.50;7.03;;;;;;;20.33;76.11;99921.78;10505473;28;20042;-73
2022/08/13 21:07:03;;;;;;;7.30;6.80;;;;;;;20.19;76.18;99910.38;10472105;28;20596;-73
2022/08/13 21:12:08;;;;;;;7.68;7.15;;;;;;;20.06;77.00;99919.31;10505673;28;20409;-73
2022/08/13 21:17:10;;;;;;;7.53;7.05;;;;;;;20.02;76.99;99917.84;10488461;28;20070;-73
2022/08/13 21:22:13;;;;;;;7.13;6.70;;;;;;;19.90;77.48;99911.56;10488724;28;20060;-73
2022/08/13 21:27:14;;;;;;;8.15;7.60;;;;;;;19.88;78.18;99904.66;10504523;28;20051;-73
2022/08/13 21:33:02;;;;;;;8.45;7.90;;;;;;;19.90;77.84;99905.38;10505271;28;20040;-73
2022/08/13 21:38:07;;;;;;;8.20;7.60;;;;;;;20.04;77.66;99905.22;10505442;28;20044;-74
2022/08/13 21:43:12;;;;;;;;;;;;;;;19.90;77.82;99902.72;10487153;28;20036;-72
2022/08/13 21:48:16;;;;;;;8.13;7.63;;;;;;;20.02;78.10;99901.81;10485046;28;19920;-74
2022/08/13 21:53:20;;;;;;;8.23;7.63;;;;;;;19.98;78.31;99892.34;10503474;28;20064;-74
2022/08/13 21:58:42;;;;;;;7.82;7.40;;;;;;;19.93;78.60;99894.50;10504621;28;20036;-74
2022/08/13 22:03:53;;;;;;;7.40;6.97;;;;;;;19.73;78.86;99887.06;10485621;28;20456;-74
2022/08/13 22:09:05;;;;;;;9.02;8.43;;;;;;;19.90;79.19;99890.22;10504621;28;20036;-74
2022/08/13 22:14:06;;;;;;;9.27;8.75;;;;;;;19.94;79.07;99893.53;10502781;28;20417;-74
2022/08/13 22:19:09;;;;;;;8.52;8.02;;;;;;;19.74;80.07;99878.94;10483500;28;20048;-74
2022/08/13 22:24:11;;;;;;;9.05;8.45;;;;;;;19.53;81.60;99880.50;10502560;28;20504;-73
2022/08/13 22:34:33;;;;;;;11.38;10.50;;;;;;;19.52;81.77;99881.41;10502615;28;20505;-74
2022/08/13 22:39:53;;;;;;;10.38;9.65;;;;;;;19.35;82.11;99877.31;10500870;28;20405;-73
2022/08/13 22:44:59;;;;;;;9.50;8.98;;;;;;;19.08;83.92;99869.41;10501322;28;20051;-73
2022/08/13 22:50:01;;;;;;;9.98;9.38;;;;;;;19.15;84.07;99870.69;10500623;28;20379;-75
2022/08/13 22:55:06;;;;;;;9.27;8.65;;;;;;;19.03;84.46;99872.41;10500700;28;20044;-73
2022/08/13 23:00:11;;;;;;;9.77;9.18;;;;;;;19.39;83.62;99870.81;10501170;28;20405;-73
2022/08/13 23:05:13;;;;;;;10.05;9.25;;;;;;;19.03;84.21;99864.41;10482424;28;20103;-74
2022/08/13 23:10:16;;;;;;;9.05;8.52;;;;;;;18.85;85.38;99882.50;10501498;28;20037;-74
2022/08/13 23:15:17;;;;;;;9.82;9.25;;;;;;;19.11;85.07;99878.06;10500669;28;20044;-73
2022/08/13 23:20:20;;;;;;;8.38;7.88;;;;;;;19.08;84.39;99880.94;10501421;28;20455;-73
2022/08/13 23:25:23;;;;;;;9.48;8.95;;;;;;;18.80;85.33;99875.81;10504545;28;20501;-73
2022/08/13 23:30:25;;;;;;;9.65;9.05;;;;;;;18.68;85.45;99869.47;10483400;28;20050;-74
2022/08/13 23:35:33;;;;;;;9.77;9.20;;;;;;;18.84;85.92;99867.50;10500441;28;20048;-74
2022/08/13 23:40:35;;;;;;;9.57;9.00;;;;;;;18.84;85.77;99869.31;10501396;28;20041;-74
2022/08/13 23:45:38;;;;;;;10.18;9.57;;;;;;;18.88;84.98;99865.47;10483266;28;20132;-73
2022/08/13 23:50:41;;;;;;;9.48;8.88;;;;;;;18.81;86.45;99851.72;10485366;28;20036;-73
2022/08/13 23:55:44;;;;;;;9.20;8.60;;;;;;;18.86;85.58;99844.28;10491048;28;20048;-73
